KBMQ

Burnet Municipal Kate Craddock Field Airport

Burnet, Texas, USA
METAR KBMQ 110153Z AUTO 00000KT 10SM CLR 04/M01 A3039 RMK AO2 SLP296 T00391006
Observed Flight Rules
Dec-11 @ 01:53 UTC (an hour ago) Visual Flight Rules
Visibility Clouds
10 miles
  • Clear skies
Temperatures Readings
Current 4°C / 39°F
Dewpoint -1°C / 30°F
Humidity 70%
Altimeter 30.39" Hg
Pressure 1029.6 hPa
Elevation 389
METAR KBMQ 110153Z AUTO 00000KT 10SM CLR 04/M01 A3039 RMK AO2 SLP296 T00391006
Observed Flight Rules
Dec-11 @ 01:53 UTC
(an hour ago)
VFR
Clouds
  • Clear skies
Temperature Dewpoint
4°C / 39°F -1°C / 30°F
Humidity Altimeter Pressure
70% 30.39" Hg 1029.6 hPa